createdAt,value
2018-05-23T00:00:23.463Z,17.30
2018-05-23T00:02:51.983Z,17.30
2018-05-23T00:05:20.321Z,17.30
2018-05-23T00:07:48.666Z,17.20
2018-05-23T00:10:17.800Z,17.20
2018-05-23T00:12:46.159Z,17.20
2018-05-23T00:15:14.843Z,17.20
2018-05-23T00:17:43.448Z,17.20
2018-05-23T00:20:11.823Z,17.20
2018-05-23T00:22:40.166Z,17.20
2018-05-23T00:25:09.265Z,17.20
2018-05-23T00:27:38.414Z,17.20
2018-05-23T00:30:06.740Z,17.20
2018-05-23T00:32:35.102Z,17.20
2018-05-23T00:35:03.532Z,17.20
2018-05-23T00:37:32.111Z,17.20
2018-05-23T00:40:00.454Z,17.10
2018-05-23T00:42:29.561Z,17.00
2018-05-23T00:44:58.704Z,17.00
2018-05-23T00:47:27.033Z,17.00
2018-05-23T00:49:55.500Z,17.00
2018-05-23T00:52:23.948Z,17.00
2018-05-23T00:55:04.222Z,17.00
2018-05-23T00:57:32.599Z,16.90
2018-05-23T01:00:00.939Z,16.90
2018-05-23T01:02:29.365Z,16.90
2018-05-23T01:04:57.754Z,16.80
2018-05-23T01:07:26.109Z,16.80
2018-05-23T01:09:54.635Z,16.80
2018-05-23T01:12:23.007Z,16.80
2018-05-23T01:14:51.498Z,16.80
2018-05-23T01:17:20.606Z,16.70
2018-05-23T01:19:48.960Z,16.80
2018-05-23T01:22:17.312Z,16.70
2018-05-23T01:24:45.664Z,16.70
2018-05-23T01:27:14.057Z,16.70
2018-05-23T01:29:42.514Z,16.70
2018-05-23T01:32:10.890Z,16.70
2018-05-23T01:34:39.332Z,16.70
2018-05-23T01:37:07.681Z,16.60
2018-05-23T01:39:36.028Z,16.70
2018-05-23T01:42:04.432Z,16.70
2018-05-23T01:44:32.767Z,16.70
2018-05-23T01:47:01.893Z,16.60
2018-05-23T01:49:30.240Z,16.60
2018-05-23T01:51:59.375Z,16.60
2018-05-23T01:54:27.718Z,16.60
2018-05-23T01:56:56.844Z,16.60
2018-05-23T01:59:25.186Z,16.60
2018-05-23T02:01:54.299Z,16.60
2018-05-23T02:04:22.694Z,16.60
2018-05-23T02:06:51.023Z,16.60
2018-05-23T02:09:19.451Z,16.60
2018-05-23T02:11:47.974Z,16.60
2018-05-23T02:14:16.390Z,16.60
2018-05-23T02:16:44.800Z,16.60
2018-05-23T02:19:13.281Z,16.60
2018-05-23T02:21:41.614Z,16.60
2018-05-23T02:24:09.979Z,16.60
2018-05-23T02:26:38.487Z,16.50
2018-05-23T02:29:06.892Z,16.50
2018-05-23T02:31:35.244Z,16.50
2018-05-23T02:34:04.341Z,16.50
2018-05-23T02:36:33.468Z,16.50
2018-05-23T02:39:01.847Z,16.50
2018-05-23T02:41:30.216Z,16.50
2018-05-23T02:43:58.566Z,16.50
2018-05-23T02:46:27.666Z,16.50
2018-05-23T02:48:56.252Z,16.40
2018-05-23T02:51:25.386Z,16.40
2018-05-23T02:53:53.802Z,16.40
2018-05-23T02:56:22.206Z,16.40
2018-05-23T02:58:51.337Z,16.40
2018-05-23T03:01:19.679Z,16.40
2018-05-23T03:03:48.956Z,16.40
2018-05-23T03:06:17.289Z,16.30
2018-05-23T03:08:45.650Z,16.40
2018-05-23T03:11:13.982Z,16.40
2018-05-23T03:13:42.358Z,16.40
2018-05-23T03:16:10.705Z,16.40
2018-05-23T03:18:39.100Z,16.40
2018-05-23T03:21:07.491Z,16.30
2018-05-23T03:23:35.806Z,16.30
2018-05-23T03:26:04.972Z,16.30
2018-05-23T03:28:33.397Z,16.30
2018-05-23T03:31:02.612Z,16.40
2018-05-23T03:33:31.705Z,16.30
2018-05-23T03:36:00.165Z,16.30
2018-05-23T03:38:28.590Z,16.40
2018-05-23T03:40:56.983Z,16.40
2018-05-23T03:43:25.570Z,16.40
2018-05-23T03:45:53.930Z,16.40
2018-05-23T03:48:22.323Z,16.40
2018-05-23T03:50:50.665Z,16.40
2018-05-23T03:53:19.777Z,16.40
2018-05-23T03:55:48.109Z,16.40
2018-05-23T03:58:16.454Z,16.40
2018-05-23T04:00:56.657Z,16.40
2018-05-23T04:03:36.958Z,16.40
2018-05-23T04:06:17.257Z,16.50
2018-05-23T04:08:45.609Z,16.50
2018-05-23T04:11:14.490Z,16.40
2018-05-23T04:13:42.841Z,16.40
2018-05-23T04:16:11.186Z,16.40
2018-05-23T04:18:39.560Z,16.40
2018-05-23T04:21:08.554Z,16.40
2018-05-23T04:23:36.911Z,16.40
2018-05-23T04:26:05.248Z,16.40
2018-05-23T04:28:34.372Z,16.40
2018-05-23T04:31:02.701Z,16.30
2018-05-23T04:33:31.118Z,16.40
2018-05-23T04:35:59.467Z,16.40
2018-05-23T04:38:27.821Z,16.40
2018-05-23T04:40:56.168Z,16.40
2018-05-23T04:43:24.584Z,16.50
2018-05-23T04:45:52.915Z,16.50
2018-05-23T04:48:21.254Z,16.60
2018-05-23T04:50:49.613Z,16.60
2018-05-23T04:53:17.942Z,16.70
2018-05-23T04:55:46.329Z,16.70
2018-05-23T04:58:14.665Z,16.70
2018-05-23T05:00:43.037Z,16.80
2018-05-23T05:03:11.501Z,16.90
2018-05-23T05:05:39.880Z,16.90
2018-05-23T05:08:08.205Z,16.90
2018-05-23T05:10:37.350Z,17.00
2018-05-23T05:13:05.671Z,17.00
2018-05-23T05:15:34.797Z,17.10
2018-05-23T05:18:03.126Z,17.10
2018-05-23T05:20:31.570Z,17.10
2018-05-23T05:22:59.943Z,17.10
2018-05-23T05:25:28.295Z,17.20
2018-05-23T05:27:56.852Z,17.20
2018-05-23T05:30:25.188Z,17.20
2018-05-23T05:32:53.542Z,17.30
2018-05-23T05:35:22.639Z,17.40
2018-05-23T05:37:50.996Z,17.30
2018-05-23T05:40:19.338Z,17.40
2018-05-23T05:42:47.683Z,17.40
2018-05-23T05:45:16.017Z,17.50
2018-05-23T05:47:44.351Z,17.60
2018-05-23T05:50:12.728Z,17.70
2018-05-23T05:52:41.059Z,17.80
2018-05-23T05:55:09.414Z,17.80
2018-05-23T05:57:37.755Z,17.90
2018-05-23T06:00:06.117Z,17.90
2018-05-23T06:02:34.474Z,18.00
2018-05-23T06:05:02.903Z,18.10
2018-05-23T06:07:31.239Z,18.10
2018-05-23T06:09:59.758Z,18.20
2018-05-23T06:12:28.036Z,18.20
2018-05-23T06:14:56.398Z,18.30
2018-05-23T06:17:25.710Z,18.40
2018-05-23T06:19:54.811Z,18.50
2018-05-23T06:22:23.260Z,18.50
2018-05-23T06:24:51.643Z,18.60
2018-05-23T06:27:20.783Z,18.80
2018-05-23T06:29:49.163Z,18.80
2018-05-23T06:32:17.544Z,18.90
2018-05-23T06:34:45.931Z,18.90
2018-05-23T06:37:14.270Z,19.00
2018-05-23T06:39:43.371Z,19.20
2018-05-23T06:42:11.726Z,19.10
2018-05-23T06:44:40.074Z,19.30
2018-05-23T06:47:08.639Z,19.40
2018-05-23T06:49:36.990Z,19.70
2018-05-23T06:52:05.347Z,20.00
2018-05-23T06:54:33.882Z,20.20
2018-05-23T06:57:02.218Z,20.50
2018-05-23T06:59:31.575Z,20.70
2018-05-23T07:01:59.942Z,20.70
2018-05-23T07:04:28.292Z,20.90
2018-05-23T07:06:56.631Z,21.10
2018-05-23T07:09:24.980Z,21.10
2018-05-23T07:11:53.343Z,21.20
2018-05-23T07:14:21.695Z,21.20
2018-05-23T07:16:50.156Z,21.20
2018-05-23T07:19:18.682Z,21.30
2018-05-23T07:21:47.073Z,21.40
2018-05-23T07:24:15.439Z,21.40
2018-05-23T07:26:43.826Z,21.50
2018-05-23T07:29:12.175Z,21.60
2018-05-23T07:31:41.305Z,21.50
2018-05-23T07:34:09.687Z,21.50
2018-05-23T07:36:38.033Z,21.50
2018-05-23T07:39:07.140Z,21.60
2018-05-23T07:41:35.507Z,21.50
2018-05-23T07:44:04.649Z,21.70
2018-05-23T07:46:33.018Z,21.70
2018-05-23T07:49:01.375Z,21.70
2018-05-23T07:51:29.800Z,21.80
2018-05-23T07:53:58.145Z,21.80
2018-05-23T07:56:26.488Z,21.80
2018-05-23T07:58:54.838Z,21.90
2018-05-23T08:01:23.169Z,21.90
2018-05-23T08:03:51.572Z,22.10
2018-05-23T08:06:19.911Z,22.10
2018-05-23T08:08:49.027Z,22.40
2018-05-23T08:11:17.374Z,22.30
2018-05-23T08:13:45.720Z,22.40
2018-05-23T08:16:14.082Z,22.50
2018-05-23T08:18:42.462Z,22.60
2018-05-23T08:21:10.790Z,22.60
2018-05-23T08:23:39.148Z,22.50
2018-05-23T08:26:07.510Z,22.60
2018-05-23T08:28:35.870Z,22.60
2018-05-23T08:31:04.263Z,22.70
2018-05-23T08:33:32.705Z,22.70
2018-05-23T08:36:00.978Z,22.70
2018-05-23T08:38:29.310Z,22.70
2018-05-23T08:40:57.670Z,22.60
2018-05-23T08:43:26.018Z,22.70
2018-05-23T08:45:55.147Z,22.90
2018-05-23T08:48:24.331Z,23.00
2018-05-23T08:50:52.710Z,23.00
2018-05-23T08:53:21.791Z,23.20
2018-05-23T08:55:50.159Z,23.10
2018-05-23T08:58:18.494Z,23.20
2018-05-23T09:00:46.837Z,23.30
2018-05-23T09:03:15.942Z,23.50
2018-05-23T09:05:44.282Z,23.40
2018-05-23T09:08:12.633Z,23.50
2018-05-23T09:10:41.047Z,23.60
2018-05-23T09:13:10.161Z,23.70
2018-05-23T09:15:38.643Z,23.70
2018-05-23T09:18:07.099Z,23.70
2018-05-23T09:20:35.438Z,23.80
2018-05-23T09:23:03.847Z,24.00
2018-05-23T09:25:32.247Z,24.00
2018-05-23T09:28:00.555Z,24.20
2018-05-23T09:30:28.915Z,24.30
2018-05-23T09:32:58.023Z,24.40
2018-05-23T09:35:26.409Z,24.40
2018-05-23T09:37:54.807Z,24.50
2018-05-23T09:40:23.331Z,24.60
2018-05-23T09:42:51.743Z,24.70
2018-05-23T09:45:20.137Z,24.70
2018-05-23T09:47:48.486Z,24.90
2018-05-23T09:50:17.603Z,25.00
2018-05-23T09:52:45.942Z,25.00
2018-05-23T09:55:14.370Z,25.10
2018-05-23T09:57:42.751Z,25.30
2018-05-23T10:00:11.107Z,25.30
2018-05-23T10:02:40.210Z,25.60
2018-05-23T10:05:08.663Z,25.60
2018-05-23T10:07:37.068Z,25.80
2018-05-23T10:10:06.234Z,26.10
2018-05-23T10:12:34.582Z,26.20
2018-05-23T10:15:02.941Z,26.30
2018-05-23T10:17:31.976Z,26.40
2018-05-23T10:20:00.500Z,26.60
2018-05-23T10:22:29.040Z,26.80
2018-05-23T10:24:57.400Z,26.90
2018-05-23T10:27:25.730Z,26.90
2018-05-23T10:29:54.853Z,26.90
2018-05-23T10:32:23.456Z,26.90
2018-05-23T10:34:51.778Z,27.00
2018-05-23T10:37:20.122Z,26.90
2018-05-23T10:39:48.580Z,27.00
2018-05-23T10:42:16.956Z,27.00
2018-05-23T10:44:45.312Z,27.20
2018-05-23T10:47:14.634Z,27.40
2018-05-23T10:49:43.120Z,27.30
2018-05-23T10:52:11.643Z,27.40
2018-05-23T10:54:39.853Z,27.50
2018-05-23T10:57:09.077Z,27.50
2018-05-23T10:59:37.306Z,27.50
2018-05-23T11:02:05.687Z,27.60
2018-05-23T11:04:34.029Z,27.50
2018-05-23T11:07:02.395Z,27.50
2018-05-23T11:09:30.745Z,27.60
2018-05-23T11:11:59.858Z,27.70
2018-05-23T11:14:28.252Z,27.70
2018-05-23T11:16:56.731Z,27.70
2018-05-23T11:19:25.077Z,27.70
2018-05-23T11:21:54.206Z,27.80
2018-05-23T11:24:22.772Z,27.80
2018-05-23T11:26:51.056Z,27.90
2018-05-23T11:29:19.427Z,27.90
2018-05-23T11:31:47.753Z,28.00
2018-05-23T11:34:16.202Z,28.10
2018-05-23T11:36:44.597Z,28.10
2018-05-23T11:39:12.925Z,28.20
2018-05-23T11:41:42.082Z,28.30
2018-05-23T11:44:10.486Z,28.20
2018-05-23T11:46:38.890Z,28.20
2018-05-23T11:49:07.214Z,28.20
2018-05-23T11:51:35.578Z,28.20
2018-05-23T11:54:03.965Z,28.20
2018-05-23T11:56:32.317Z,28.20
2018-05-23T11:59:00.686Z,28.30
2018-05-23T12:01:29.019Z,28.40
2018-05-23T12:03:57.365Z,28.50
2018-05-23T12:06:25.739Z,28.50
2018-05-23T12:08:54.236Z,28.50
2018-05-23T12:11:22.749Z,28.60
2018-05-23T12:13:51.116Z,28.80
2018-05-23T12:16:19.502Z,28.90
2018-05-23T12:18:48.057Z,29.00
2018-05-23T12:21:16.437Z,29.10
2018-05-23T12:23:44.772Z,29.30
2018-05-23T12:26:13.911Z,29.80
2018-05-23T12:28:42.291Z,29.70
2018-05-23T12:31:10.668Z,30.00
2018-05-23T12:33:39.164Z,30.20
2018-05-23T12:36:07.507Z,30.30
2018-05-23T12:38:35.855Z,30.50
2018-05-23T12:41:04.298Z,30.60
2018-05-23T12:43:32.692Z,30.70
2018-05-23T12:46:01.751Z,30.70
2018-05-23T12:48:30.139Z,30.70
2018-05-23T12:50:58.508Z,30.70
2018-05-23T12:53:26.922Z,30.60
2018-05-23T12:55:55.254Z,30.30
2018-05-23T12:58:23.618Z,30.10
2018-05-23T13:00:52.748Z,30.00
2018-05-23T13:03:21.151Z,30.00
2018-05-23T13:05:49.479Z,29.90
2018-05-23T13:08:17.863Z,29.80
2018-05-23T13:10:46.187Z,29.80
2018-05-23T13:13:14.554Z,29.70
2018-05-23T13:15:42.891Z,29.70
2018-05-23T13:18:12.004Z,30.10
2018-05-23T13:20:41.121Z,30.40
2018-05-23T13:23:09.474Z,30.40
2018-05-23T13:25:38.618Z,30.80
2018-05-23T13:28:06.971Z,30.80
2018-05-23T13:30:35.344Z,30.90
2018-05-23T13:33:03.678Z,31.00
2018-05-23T13:35:32.109Z,31.20
2018-05-23T13:38:01.251Z,31.90
2018-05-23T13:40:29.689Z,31.90
2018-05-23T13:42:58.024Z,32.20
2018-05-23T13:45:26.693Z,32.30
2018-05-23T13:47:55.054Z,32.30
2018-05-23T13:50:23.574Z,32.30
2018-05-23T13:52:52.036Z,32.40
2018-05-23T13:55:20.370Z,32.50
2018-05-23T13:57:48.717Z,32.70
2018-05-23T14:00:17.836Z,33.10
2018-05-23T14:02:46.204Z,33.10
2018-05-23T14:05:15.301Z,33.20
2018-05-23T14:07:44.419Z,33.20
2018-05-23T14:10:12.891Z,33.20
2018-05-23T14:12:41.357Z,33.30
2018-05-23T14:15:10.651Z,33.80
2018-05-23T14:17:39.806Z,34.00
2018-05-23T14:20:08.161Z,33.90
2018-05-23T14:22:36.754Z,34.00
2018-05-23T14:25:05.075Z,34.10
2018-05-23T14:27:33.526Z,34.10
2018-05-23T14:30:02.626Z,34.10
2018-05-23T14:32:30.983Z,34.10
2018-05-23T14:34:59.352Z,34.30
2018-05-23T14:37:27.686Z,34.40
2018-05-23T14:39:56.121Z,34.40
2018-05-23T14:42:24.568Z,34.10
2018-05-23T14:44:52.914Z,34.10
2018-05-23T14:47:21.369Z,34.20
2018-05-23T14:49:49.818Z,34.30
2018-05-23T14:52:18.938Z,34.10
2018-05-23T14:54:47.307Z,34.10
2018-05-23T14:57:16.680Z,33.90
2018-05-23T14:59:45.171Z,34.10
2018-05-23T15:02:13.492Z,34.30
2018-05-23T15:04:41.824Z,34.50
2018-05-23T15:07:11.875Z,34.50
2018-05-23T15:09:40.203Z,34.50
2018-05-23T15:12:08.643Z,34.10
2018-05-23T15:14:37.027Z,33.30
2018-05-23T15:17:05.412Z,32.60
2018-05-23T15:19:33.790Z,32.00
2018-05-23T15:22:02.309Z,31.70
2018-05-23T15:24:30.647Z,31.20
2018-05-23T15:26:59.130Z,31.00
2018-05-23T15:29:27.508Z,30.70
2018-05-23T15:31:55.870Z,30.60
2018-05-23T15:34:24.203Z,30.50
2018-05-23T15:36:52.557Z,30.40
2018-05-23T15:39:21.010Z,30.10
2018-05-23T15:41:49.542Z,30.00
2018-05-23T15:44:17.791Z,29.80
2018-05-23T15:46:46.151Z,29.70
2018-05-23T15:49:14.537Z,29.50
2018-05-23T15:51:42.859Z,29.40
2018-05-23T15:54:11.354Z,29.30
2018-05-23T15:56:39.724Z,29.20
2018-05-23T15:59:08.939Z,29.00
2018-05-23T16:01:38.069Z,28.80
2018-05-23T16:04:06.658Z,28.70
2018-05-23T16:06:35.030Z,28.50
2018-05-23T16:09:03.391Z,28.30
2018-05-23T16:11:31.742Z,28.20
2018-05-23T16:14:00.167Z,28.00
2018-05-23T16:16:28.564Z,28.00
2018-05-23T16:18:56.970Z,28.10
2018-05-23T16:21:25.411Z,28.10
2018-05-23T16:23:53.790Z,28.30
2018-05-23T16:26:22.169Z,28.50
2018-05-23T16:28:50.611Z,28.90
2018-05-23T16:31:19.763Z,29.70
2018-05-23T16:33:48.094Z,29.70
2018-05-23T16:36:17.323Z,30.50
2018-05-23T16:38:45.665Z,30.40
2018-05-23T16:41:14.893Z,31.20
2018-05-23T16:43:43.150Z,31.20
2018-05-23T16:46:12.258Z,32.40
2018-05-23T16:48:40.768Z,32.40
2018-05-23T16:51:09.138Z,33.20
2018-05-23T16:53:37.486Z,34.00
2018-05-23T16:56:06.771Z,35.60
2018-05-23T16:58:35.194Z,35.60
2018-05-23T17:01:03.575Z,36.10
2018-05-23T17:03:31.923Z,36.10
2018-05-23T17:06:00.337Z,36.50
2018-05-23T17:08:28.817Z,36.80
2018-05-23T17:10:57.197Z,36.50
2018-05-23T17:13:25.589Z,35.80
2018-05-23T17:15:54.104Z,35.20
2018-05-23T17:18:23.408Z,34.50
2018-05-23T17:20:51.804Z,33.50
2018-05-23T17:23:20.904Z,31.90
2018-05-23T17:25:50.049Z,30.90
2018-05-23T17:28:18.428Z,30.80
2018-05-23T17:30:46.798Z,30.00
2018-05-23T17:33:16.071Z,28.40
2018-05-23T17:35:45.473Z,28.30
2018-05-23T17:38:14.574Z,27.30
2018-05-23T17:40:42.974Z,27.20
2018-05-23T17:43:11.365Z,27.10
2018-05-23T17:45:40.350Z,26.90
2018-05-23T17:48:08.710Z,26.80
2018-05-23T17:50:37.040Z,26.80
2018-05-23T17:53:05.469Z,26.80
2018-05-23T17:55:33.866Z,26.90
2018-05-23T17:58:02.349Z,27.30
2018-05-23T18:00:30.702Z,27.90
2018-05-23T18:02:59.105Z,28.30
2018-05-23T18:05:27.458Z,28.90
2018-05-23T18:07:56.565Z,29.90
2018-05-23T18:10:24.968Z,30.00
2018-05-23T18:12:53.928Z,30.40
2018-05-23T18:15:23.162Z,30.70
2018-05-23T18:17:51.581Z,30.70
2018-05-23T18:20:19.914Z,30.90
2018-05-23T18:22:48.298Z,31.20
2018-05-23T18:25:16.668Z,31.40
2018-05-23T18:27:45.014Z,31.20
2018-05-23T18:30:14.249Z,30.10
2018-05-23T18:32:42.721Z,30.10
2018-05-23T18:35:11.331Z,29.50
2018-05-23T18:37:39.679Z,29.00
2018-05-23T18:40:08.065Z,28.60
2018-05-23T18:42:36.407Z,28.10
2018-05-23T18:45:05.618Z,27.10
2018-05-23T18:47:34.056Z,27.10
2018-05-23T18:50:02.442Z,26.50
2018-05-23T18:52:30.797Z,25.90
2018-05-23T18:54:59.145Z,25.40
2018-05-23T18:57:27.504Z,24.90
2018-05-23T18:59:56.687Z,24.50
2018-05-23T19:02:25.129Z,24.20
2018-05-23T19:04:53.521Z,23.70
2018-05-23T19:07:22.587Z,23.20
2018-05-23T19:09:51.061Z,23.20
2018-05-23T19:12:19.574Z,23.00
2018-05-23T19:14:48.159Z,22.80
2018-05-23T19:17:16.522Z,22.60
2018-05-23T19:19:44.895Z,22.40
2018-05-23T19:22:13.238Z,22.30
2018-05-23T19:24:42.044Z,22.20
2018-05-23T19:27:10.463Z,22.00
2018-05-23T19:29:38.821Z,21.90
2018-05-23T19:32:07.156Z,21.90
2018-05-23T19:34:35.806Z,21.80
2018-05-23T19:37:04.151Z,21.60
2018-05-23T19:39:32.579Z,21.60
2018-05-23T19:42:00.915Z,21.60
2018-05-23T19:44:29.279Z,21.50
2018-05-23T19:46:58.406Z,21.40
2018-05-23T19:49:27.560Z,21.30
2018-05-23T19:51:55.967Z,21.30
2018-05-23T19:54:24.385Z,21.30
2018-05-23T19:56:52.771Z,21.20
2018-05-23T19:59:21.161Z,21.20
2018-05-23T20:01:49.556Z,21.10
2018-05-23T20:04:17.902Z,21.00
2018-05-23T20:06:46.256Z,21.00
2018-05-23T20:09:14.596Z,20.90
2018-05-23T20:11:42.955Z,20.80
2018-05-23T20:14:11.386Z,20.80
2018-05-23T20:16:39.746Z,20.70
2018-05-23T20:19:08.093Z,20.70
2018-05-23T20:21:36.434Z,20.70
2018-05-23T20:24:04.793Z,20.60
2018-05-23T20:26:33.902Z,20.60
2018-05-23T20:29:02.313Z,20.60
2018-05-23T20:31:30.642Z,20.50
2018-05-23T20:33:59.765Z,20.40
2018-05-23T20:36:28.094Z,20.40
2018-05-23T20:38:56.457Z,20.40
2018-05-23T20:41:25.075Z,20.30
2018-05-23T20:43:53.403Z,20.30
2018-05-23T20:46:21.763Z,20.20
2018-05-23T20:48:50.134Z,20.20
2018-05-23T20:51:18.527Z,20.10
2018-05-23T20:53:46.998Z,20.00
2018-05-23T20:56:15.499Z,20.00
2018-05-23T20:58:44.032Z,19.90
2018-05-23T21:01:12.354Z,19.80
2018-05-23T21:03:40.723Z,19.70
2018-05-23T21:06:09.106Z,19.50
2018-05-23T21:08:37.494Z,19.50
2018-05-23T21:11:05.879Z,19.40
2018-05-23T21:13:34.241Z,19.30
2018-05-23T21:16:02.613Z,19.20
2018-05-23T21:18:30.998Z,19.20
2018-05-23T21:20:59.384Z,19.10
2018-05-23T21:23:27.771Z,19.10
2018-05-23T21:25:56.152Z,19.00
2018-05-23T21:28:24.510Z,18.90
2018-05-23T21:30:52.896Z,18.90
2018-05-23T21:33:21.267Z,18.90
2018-05-23T21:35:49.621Z,18.80
2018-05-23T21:38:18.047Z,18.80
2018-05-23T21:40:46.383Z,18.80
2018-05-23T21:43:15.503Z,18.70
2018-05-23T21:45:43.839Z,18.70
2018-05-23T21:48:12.200Z,18.60
2018-05-23T21:50:40.603Z,18.60
2018-05-23T21:53:08.951Z,18.60
2018-05-23T21:55:37.299Z,18.50
2018-05-23T21:58:05.805Z,18.50
2018-05-23T22:00:34.155Z,18.50
2018-05-23T22:03:02.509Z,18.50
2018-05-23T22:05:30.860Z,18.40
2018-05-23T22:07:59.328Z,18.40
2018-05-23T22:10:27.688Z,18.40
2018-05-23T22:12:56.076Z,18.30
2018-05-23T22:15:24.434Z,18.30
2018-05-23T22:17:52.778Z,18.30
2018-05-23T22:20:21.132Z,18.20
2018-05-23T22:22:49.485Z,18.20
2018-05-23T22:25:17.837Z,18.20
2018-05-23T22:27:46.962Z,18.20
2018-05-23T22:30:15.310Z,18.10
2018-05-23T22:32:43.707Z,18.20
2018-05-23T22:35:12.805Z,18.10
2018-05-23T22:37:41.162Z,18.10
2018-05-23T22:40:10.416Z,18.00
2018-05-23T22:42:38.806Z,18.00
2018-05-23T22:45:07.156Z,18.00
2018-05-23T22:47:35.609Z,18.00
2018-05-23T22:50:04.764Z,17.90
2018-05-23T22:52:33.392Z,17.90
2018-05-23T22:55:01.752Z,17.80
2018-05-23T22:57:30.136Z,17.80
2018-05-23T22:59:58.598Z,17.80
2018-05-23T23:02:26.935Z,17.70
2018-05-23T23:04:55.361Z,17.70
2018-05-23T23:07:23.750Z,17.60
2018-05-23T23:09:52.304Z,17.60
2018-05-23T23:12:20.677Z,17.50
2018-05-23T23:14:49.097Z,17.50
2018-05-23T23:17:17.457Z,17.50
2018-05-23T23:19:45.888Z,17.40
2018-05-23T23:22:26.037Z,17.40
2018-05-23T23:24:54.394Z,17.40
2018-05-23T23:27:23.841Z,17.30
2018-05-23T23:29:52.325Z,17.30
2018-05-23T23:32:20.832Z,17.30
2018-05-23T23:34:49.165Z,17.30
2018-05-23T23:37:17.508Z,17.20
2018-05-23T23:39:45.906Z,17.20
2018-05-23T23:42:14.309Z,17.20
2018-05-23T23:44:43.583Z,17.00
2018-05-23T23:47:11.884Z,17.00
2018-05-23T23:49:40.256Z,17.00
2018-05-23T23:52:08.719Z,16.90
2018-05-23T23:54:37.143Z,16.90
2018-05-23T23:57:05.518Z,16.90
2018-05-23T23:59:33.902Z,16.80
